Terminal Aerodrome Forecast
Issued by NWS

Home | Current Version | Previous Version | Text Only | Print | Product List | Glossary On
Versions: 1 2 3 4 5 6 7 8 9 10 11 12 13 14 15 16 17 18 19 20 21
000
FTUS42 KGSP 022320
TAFAND
TAF
KAND 022320Z 0300/0324 22010KT P6SM FEW030 SCT080 BKN120
     FM030300 20006KT P6SM SCT030 OVC070
      TEMPO 0303/0307 4SM -TSRA OVC025CB
     FM030900 21005KT 4SM BR OVC050
     FM031300 24010G17KT P6SM BKN050 PROB30 0314/0320 2SM -TSRA BR
      OVC025CB=

USA.gov is the U.S. government's official web portal to all federal, state and local government web resources and services.